PHKO METAR and TAF weather

Enter ICAO airport designator
Station Type Date Time Source
PHKO METAR 2021/09/25 11:53 UTC NOAA

PHKO 251153Z AUTO 14010KT 10SM FEW060 24/19 A2993 RMK AO2 SLP134 T02390194 10250 20228 58012 TSNO


Station Type Date Time Source
PHKO Decoded METAR 2021/09/25 11:53 UTC NOAA

KONA INTERNATIONAL AIRPORT, HI, United States (PHKO) 19-44N 156-03W 27M
Sep 25, 2021 - 07:53 AM EDT / 2021.09.25 1153 UTC
Wind: from the SE (140 degrees) at 12 MPH (10 KT):0
Visibility: 10 mile(s):0
Sky conditions: mostly clear
Temperature: 75.0 F (23.9 C)
Dew Point: 66.9 F (19.4 C)
Relative Humidity: 75%
Pressure (altimeter): 29.93 in. Hg (1013 hPa)
Pressure tendency: 0.04 inches (1.2 hPa) lower than three hours ago
ob: PHKO 251153Z AUTO 14010KT 10SM FEW060 24/19 A2993 RMK AO2 SLP134 T02390194 10250 20228 58012 TSNO
cycle: 12

Station Type Date Time Source
PHKO TAF 2021/09/25 12:39 UTC NOAA

TAF PHKO 251137Z 2512/2612 12007KT P6SM FEW030 SCT050
FM252000 24011KT P6SM FEW030 BKN050
FM260500 12007KT P6SM FEW030 BKN050

Example: see airport list